Time;durP1;ratioP1;P1;durP2;ratioP2;P2;SDS_P1;SDS_P2;PMS_P1;PMS_P2;Temp;Humidity;BMP_temperature;BMP_pressure;BME280_temperature;BME280_humidity;BME280_pressure;Samples;Min_cycle;Max_cycle;Signal;HPM_P1;HPM_P2
2022/01/01 00:00:41;;;;;;;45.83;34.40;;;12.40;99.90;;;;;;5074819;28;20270;-74
2022/01/01 00:03:07;;;;;;;39.77;29.67;;;12.40;99.90;;;;;;5073553;28;20187;-74
2022/01/01 00:05:33;;;;;;;42.13;29.53;;;12.40;99.90;;;;;;5070478;28;20537;-73
2022/01/01 00:08:00;;;;;;;33.73;26.07;;;12.40;99.90;;;;;;5055133;28;20734;-74
2022/01/01 00:10:26;;;;;;;33.93;25.23;;;12.40;99.90;;;;;;5070691;28;20179;-73
2022/01/01 00:12:51;;;;;;;34.57;25.47;;;12.40;99.90;;;;;;5070426;28;20589;-73
2022/01/01 00:15:18;;;;;;;33.90;23.13;;;12.40;99.90;;;;;;5075767;28;20214;-74
2022/01/01 00:17:44;;;;;;;27.57;22.10;;;12.40;99.90;;;;;;5062108;28;20191;-75
2022/01/01 00:20:11;;;;;;;29.03;19.97;;;12.40;99.90;;;;;;5061936;28;20196;-74
2022/01/01 00:22:37;;;;;;;30.60;22.67;;;12.40;99.90;;;;;;5079852;28;20191;-73
2022/01/01 00:25:04;;;;;;;23.80;18.50;;;12.40;99.90;;;;;;5078913;28;20177;-74
2022/01/01 00:27:30;;;;;;;28.03;19.37;;;12.40;99.90;;;;;;5079105;28;20179;-75
2022/01/01 00:29:55;;;;;;;24.10;17.73;;;12.40;99.90;;;;;;5078651;28;20232;-74
2022/01/01 00:32:21;;;;;;;22.60;16.77;;;12.40;99.90;;;;;;5077806;28;20409;-74
2022/01/01 00:34:46;;;;;;;23.23;17.40;;;12.30;99.90;;;;;;5077870;28;20204;-75
2022/01/01 00:37:12;;;;;;;22.93;16.30;;;12.40;99.90;;;;;;5079550;28;20580;-74
2022/01/01 00:39:37;;;;;;;23.97;17.20;;;12.40;99.90;;;;;;5082566;28;20171;-74
2022/01/01 00:42:03;;;;;;;21.63;16.33;;;12.40;99.90;;;;;;5079703;28;20197;-74
2022/01/01 00:44:32;;;;;;;20.53;16.40;;;12.40;99.90;;;;;;5079294;28;20515;-74
2022/01/01 00:46:58;;;;;;;23.20;17.50;;;12.40;99.90;;;;;;5077942;28;20185;-73
2022/01/01 00:49:24;;;;;;;22.13;16.20;;;12.30;99.90;;;;;;5075880;28;20246;-73
2022/01/01 00:51:49;;;;;;;19.93;15.80;;;12.40;99.90;;;;;;5075598;28;20198;-74
2022/01/01 00:54:15;;;;;;;21.13;15.57;;;12.40;99.90;;;;;;5076237;28;20526;-73
2022/01/01 00:56:40;;;;;;;21.17;14.93;;;12.40;99.90;;;;;;5074915;28;20238;-73
2022/01/01 00:59:06;;;;;;;20.03;14.73;;;12.40;99.90;;;;;;5073448;28;20581;-74
2022/01/01 01:01:32;;;;;;;18.50;14.23;;;12.40;99.90;;;;;;5073903;28;20198;-75
2022/01/01 01:03:57;;;;;;;18.00;13.93;;;12.40;99.90;;;;;;5073501;28;20198;-73
2022/01/01 01:06:23;;;;;;;21.53;14.30;;;12.40;99.90;;;;;;5073812;28;20631;-73
2022/01/01 01:08:51;;;;;;;19.50;14.40;;;12.40;99.90;;;;;;5074612;28;20170;-74
2022/01/01 01:11:16;;;;;;;21.37;14.33;;;12.50;99.90;;;;;;5073838;28;20195;-74
2022/01/01 01:13:45;;;;;;;19.07;13.90;;;12.40;99.90;;;;;;5073551;28;20519;-73
2022/01/01 01:16:10;;;;;;;19.93;13.73;;;12.40;99.90;;;;;;5073640;28;20199;-73
2022/01/01 01:18:36;;;;;;;18.97;13.90;;;12.40;99.90;;;;;;5074439;28;20631;-73
2022/01/01 01:21:02;;;;;;;17.87;12.93;;;12.40;99.90;;;;;;5073322;28;20175;-74
2022/01/01 01:23:27;;;;;;;17.23;12.80;;;12.40;99.90;;;;;;5073170;28;20182;-74
2022/01/01 01:25:55;;;;;;;19.57;13.30;;;12.40;99.90;;;;;;5073458;28;20535;-75
2022/01/01 01:28:21;;;;;;;17.57;13.30;;;12.40;99.90;;;;;;5072665;28;20179;-73
2022/01/01 01:30:47;;;;;;;18.37;13.20;;;12.30;99.90;;;;;;5056292;28;20220;-74
2022/01/01 01:33:12;;;;;;;18.77;13.03;;;12.30;99.90;;;;;;5072708;28;20209;-73
2022/01/01 01:35:38;;;;;;;19.57;14.33;;;12.30;99.90;;;;;;5073211;28;20199;-73
2022/01/01 01:38:04;;;;;;;16.83;12.63;;;12.30;99.90;;;;;;5072806;28;20203;-75
2022/01/01 01:40:30;;;;;;;16.47;13.63;;;12.30;99.90;;;;;;5074388;28;20172;-73
2022/01/01 01:42:55;;;;;;;21.27;14.33;;;12.40;99.90;;;;;;5074230;28;20187;-74
2022/01/01 01:45:23;;;;;;;18.93;13.10;;;12.30;99.90;;;;;;5073056;28;20183;-73
2022/01/01 01:47:50;;;;;;;18.67;13.37;;;12.30;99.90;;;;;;5072573;28;20204;-75
2022/01/01 01:50:17;;;;;;;18.23;13.67;;;12.30;99.90;;;;;;5072667;28;20175;-73
2022/01/01 01:52:53;;;;;;;17.50;13.73;;;12.30;99.90;;;;;;5072795;28;20198;-75
2022/01/01 01:55:18;;;;;;;21.77;14.07;;;12.20;99.90;;;;;;5056121;28;20289;-73
2022/01/01 01:57:44;;;;;;;18.30;13.67;;;12.20;99.90;;;;;;5071689;28;20666;-73
2022/01/01 02:03:32;;;;;;;18.07;12.97;;;12.20;99.90;;;;;;5069714;28;20194;-74
2022/01/01 02:05:58;;;;;;;17.13;12.30;;;12.30;99.90;;;;;;5072380;28;20175;-74
2022/01/01 02:08:24;;;;;;;15.00;11.83;;;12.30;99.90;;;;;;5072063;28;20178;-74
2022/01/01 02:10:52;;;;;;;14.97;11.83;;;12.30;99.90;;;;;;5072776;28;20192;-74
2022/01/01 02:13:26;;;;;;;18.37;12.03;;;12.30;99.90;;;;;;5073646;28;20187;-73
2022/01/01 02:18:18;;;;;;;18.87;12.27;;;12.30;99.90;;;;;;5073656;28;20262;-73
2022/01/01 02:20:49;;;;;;;22.33;13.50;;;12.30;99.90;;;;;;5072548;28;20281;-73
2022/01/01 02:23:21;;;;;;;19.83;12.50;;;12.30;99.90;;;;;;5072228;28;20193;-74
2022/01/01 02:25:49;;;;;;;20.87;13.60;;;12.30;99.90;;;;;;5072520;28;20229;-73
2022/01/01 02:28:15;;;;;;;18.70;13.33;;;12.30;99.90;;;;;;5072113;28;20185;-74
2022/01/01 02:30:41;;;;;;;19.33;13.20;;;12.30;99.90;;;;;;5073366;28;20262;-72
2022/01/01 02:33:06;;;;;;;20.53;13.03;;;12.30;99.90;;;;;;5073317;28;20211;-73
2022/01/01 02:35:32;;;;;;;23.10;13.93;;;12.30;99.90;;;;;;5071997;28;20285;-74
2022/01/01 02:37:57;;;;;;;19.70;13.43;;;12.30;99.90;;;;;;5071697;28;20179;-74
2022/01/01 02:40:23;;;;;;;18.17;12.70;;;12.30;99.90;;;;;;5071953;28;20598;-72
2022/01/01 02:42:50;;;;;;;16.97;12.77;;;12.30;99.90;;;;;;5071991;28;20668;-73
2022/01/01 02:45:16;;;;;;;18.17;12.30;;;12.30;99.90;;;;;;5071875;28;20175;-74
2022/01/01 02:47:43;;;;;;;18.70;12.33;;;12.30;99.90;;;;;;5071796;28;20586;-73
2022/01/01 02:50:09;;;;;;;17.97;13.17;;;12.30;99.90;;;;;;5071722;28;20187;-74
2022/01/01 02:52:35;;;;;;;21.20;13.40;;;12.30;99.90;;;;;;5071543;28;20243;-73
2022/01/01 02:55:00;;;;;;;20.73;12.17;;;12.30;99.90;;;;;;5071550;28;20202;-73
2022/01/01 02:57:26;;;;;;;18.50;11.33;;;12.30;99.90;;;;;;5073060;28;20646;-73
2022/01/01 02:59:52;;;;;;;21.47;12.33;;;12.30;99.90;;;;;;5070534;28;20171;-73
2022/01/01 03:02:17;;;;;;;18.63;11.60;;;12.20;99.90;;;;;;5071513;28;20187;-73
2022/01/01 03:04:43;;;;;;;16.83;11.27;;;12.20;99.90;;;;;;5070884;28;20558;-73
2022/01/01 03:07:08;;;;;;;21.17;11.60;;;12.30;99.90;;;;;;5071464;28;20167;-73
2022/01/01 03:09:37;;;;;;;18.87;12.33;;;12.30;99.90;;;;;;5071243;28;20265;-73
2022/01/01 03:12:07;;;;;;;17.37;12.13;;;12.20;99.90;;;;;;5072835;28;20266;-73
2022/01/01 03:14:33;;;;;;;17.20;12.00;;;12.20;99.90;;;;;;5054715;28;20209;-73
2022/01/01 03:16:59;;;;;;;16.80;11.53;;;12.20;99.90;;;;;;5071732;28;20207;-72
2022/01/01 03:19:25;;;;;;;19.17;10.90;;;12.30;99.90;;;;;;5071508;28;20168;-75
2022/01/01 03:21:50;;;;;;;19.20;10.80;;;12.30;99.90;;;;;;5071459;28;20221;-73
2022/01/01 03:24:16;;;;;;;14.90;10.27;;;12.30;99.90;;;;;;5071473;28;20596;-74
2022/01/01 03:26:41;;;;;;;14.27;9.77;;;12.30;99.90;;;;;;5071379;28;20186;-73
2022/01/01 03:29:07;;;;;;;15.63;10.10;;;12.30;99.90;;;;;;5054085;28;20175;-73
2022/01/01 03:31:33;;;;;;;19.43;10.13;;;12.20;99.90;;;;;;5072644;28;20217;-74
2022/01/01 03:33:59;;;;;;;19.07;10.60;;;12.20;99.90;;;;;;5071204;28;20171;-72
2022/01/01 03:36:25;;;;;;;17.20;9.07;;;12.30;99.90;;;;;;5072134;28;20203;-72
2022/01/01 03:38:51;;;;;;;17.57;10.00;;;12.30;99.90;;;;;;5071806;28;20650;-72
2022/01/01 03:41:16;;;;;;;20.00;9.37;;;12.20;99.90;;;;;;5070647;28;20187;-72
2022/01/01 03:43:42;;;;;;;16.03;8.80;;;12.30;99.90;;;;;;5070650;28;20175;-73
2022/01/01 03:46:07;;;;;;;14.30;8.90;;;12.30;99.90;;;;;;5070798;28;20171;-72
2022/01/01 03:48:33;;;;;;;12.47;8.63;;;12.30;99.90;;;;;;5070335;28;20175;-72
2022/01/01 03:50:58;;;;;;;19.43;9.37;;;12.30;99.90;;;;;;5070793;28;20171;-72
2022/01/01 03:53:25;;;;;;;20.50;9.47;;;12.30;99.90;;;;;;5070354;28;20225;-72
2022/01/01 03:55:51;;;;;;;14.20;9.00;;;12.30;99.90;;;;;;5067438;28;20190;-72
2022/01/01 03:58:16;;;;;;;15.17;8.63;;;12.30;99.90;;;;;;5073485;28;20183;-72
2022/01/01 04:00:42;;;;;;;16.33;8.47;;;12.30;99.90;;;;;;5074813;28;20713;-72
2022/01/01 04:03:12;;;;;;;16.57;7.90;;;12.30;99.90;;;;;;5074868;28;20187;-72
2022/01/01 04:05:42;;;;;;;15.73;9.47;;;12.30;99.90;;;;;;5073994;28;20170;-72
2022/01/01 04:08:09;;;;;;;17.23;9.30;;;12.30;99.90;;;;;;5091665;28;20181;-72
2022/01/01 04:10:35;;;;;;;19.67;9.60;;;12.30;99.90;;;;;;5073698;28;20178;-72
2022/01/01 04:13:03;;;;;;;16.20;9.90;;;12.30;99.90;;;;;;5072853;28;20190;-72
2022/01/01 04:15:30;;;;;;;15.77;9.70;;;12.30;99.90;;;;;;5073366;28;20654;-72
2022/01/01 04:17:57;;;;;;;17.33;9.67;;;12.30;99.90;;;;;;5091658;28;20190;-71
2022/01/01 04:20:23;;;;;;;18.97;9.37;;;12.30;99.90;;;;;;5091721;28;20159;-72
2022/01/01 04:22:48;;;;;;;13.23;8.50;;;12.30;99.90;;;;;;5073624;28;20186;-72
2022/01/01 04:25:14;;;;;;;16.17;10.57;;;12.30;99.90;;;;;;5073402;28;20178;-72
2022/01/01 04:27:39;;;;;;;17.23;10.37;;;12.30;99.90;;;;;;5073423;28;20551;-72
2022/01/01 04:30:05;;;;;;;17.07;10.47;;;12.30;99.90;;;;;;5091592;28;20631;-72
2022/01/01 04:32:31;;;;;;;19.60;10.83;;;12.30;99.90;;;;;;5088313;22;20226;-73
2022/01/01 04:34:56;;;;;;;17.87;10.07;;;12.30;99.90;;;;;;5073257;28;20177;-72
2022/01/01 04:37:22;;;;;;;18.50;10.43;;;12.30;99.90;;;;;;5073635;28;20185;-73
2022/01/01 04:39:51;;;;;;;18.27;10.10;;;12.30;99.90;;;;;;5091469;28;20197;-73
2022/01/01 04:42:17;;;;;;;20.83;11.27;;;12.30;99.90;;;;;;5091534;28;20240;-72
2022/01/01 04:44:43;;;;;;;18.93;11.13;;;12.30;99.90;;;;;;5073405;28;20166;-72
2022/01/01 04:47:08;;;;;;;17.33;11.03;;;12.20;99.90;;;;;;5091562;28;20600;-73
2022/01/01 04:49:34;;;;;;;20.80;11.40;;;12.30;99.90;;;;;;5072936;28;20178;-73
2022/01/01 04:51:59;;;;;;;20.10;10.83;;;12.30;99.90;;;;;;5073266;28;20248;-73
2022/01/01 04:54:25;;;;;;;18.07;10.10;;;12.30;99.90;;;;;;5073153;28;20299;-72
2022/01/01 04:56:51;;;;;;;21.97;11.20;;;12.30;99.90;;;;;;5073222;28;20233;-73
2022/01/01 04:59:16;;;;;;;19.00;10.23;;;12.30;99.90;;;;;;5090937;28;20258;-75
2022/01/01 05:01:42;;;;;;;17.77;10.63;;;12.30;99.90;;;;;;5073366;28;20281;-73
2022/01/01 05:04:08;;;;;;;16.60;10.97;;;12.30;99.90;;;;;;5089853;28;20224;-73
2022/01/01 05:06:34;;;;;;;17.37;10.60;;;12.30;99.90;;;;;;5072577;28;20166;-73
2022/01/01 05:09:00;;;;;;;17.00;10.63;;;12.30;99.90;;;;;;5090917;28;20202;-74
2022/01/01 05:11:27;;;;;;;20.27;11.13;;;12.30;99.90;;;;;;5073174;28;20240;-73
2022/01/01 05:13:53;;;;;;;18.13;10.73;;;12.30;99.90;;;;;;5073074;28;20174;-73
2022/01/01 05:16:19;;;;;;;23.10;12.17;;;12.30;99.90;;;;;;5072926;28;20202;-73
2022/01/01 05:18:46;;;;;;;17.67;11.47;;;12.30;99.90;;;;;;5072639;28;20170;-72
2022/01/01 05:21:12;;;;;;;19.10;11.77;;;12.30;99.90;;;;;;5073169;28;20534;-73
2022/01/01 05:23:37;;;;;;;18.93;11.53;;;12.20;99.90;;;;;;5074207;28;20173;-73
2022/01/01 05:26:03;;;;;;;22.67;12.40;;;12.30;99.90;;;;;;5076689;28;20163;-73
2022/01/01 05:28:29;;;;;;;18.70;11.70;;;12.30;99.90;;;;;;5094225;28;20171;-73
2022/01/01 05:30:54;;;;;;;20.53;11.57;;;12.30;99.90;;;;;;5076562;28;20182;-74
2022/01/01 05:33:20;;;;;;;20.67;11.23;;;12.30;99.90;;;;;;5076299;28;20260;-73
2022/01/01 05:35:45;;;;;;;22.10;12.40;;;12.30;99.90;;;;;;5094733;28;20214;-73
2022/01/01 05:38:11;;;;;;;20.53;12.20;;;12.30;99.90;;;;;;5076222;28;20198;-74
2022/01/01 05:40:36;;;;;;;20.27;11.40;;;12.30;99.90;;;;;;5076389;28;20178;-73
2022/01/01 05:43:02;;;;;;;20.73;11.93;;;12.30;99.90;;;;;;5076506;28;20280;-73
2022/01/01 05:45:27;;;;;;;22.43;12.67;;;12.30;99.90;;;;;;5094432;28;20178;-73
2022/01/01 05:47:53;;;;;;;18.17;11.90;;;12.30;99.90;;;;;;5075895;28;20167;-73
2022/01/01 05:50:20;;;;;;;20.30;12.37;;;12.30;99.90;;;;;;5094385;28;20304;-73
2022/01/01 05:52:46;;;;;;;23.87;11.67;;;12.30;99.90;;;;;;5094473;28;20563;-73
2022/01/01 05:55:12;;;;;;;20.30;12.70;;;12.30;99.90;;;;;;5092967;28;20201;-72
2022/01/01 05:57:37;;;;;;;19.93;11.87;;;12.30;99.90;;;;;;5078759;28;20569;-76
2022/01/01 06:00:06;;;;;;;17.90;12.03;;;12.30;99.90;;;;;;5078826;28;20208;-73
2022/01/01 06:02:40;;;;;;;21.70;12.17;;;12.30;99.90;;;;;;5078313;28;20201;-75
2022/01/01 06:05:06;;;;;;;22.70;12.40;;;12.30;99.90;;;;;;5076170;28;20185;-73
2022/01/01 06:07:32;;;;;;;24.13;11.83;;;12.30;99.90;;;;;;5076029;28;20653;-73
2022/01/01 06:09:57;;;;;;;20.20;11.97;;;12.30;99.90;;;;;;5075630;28;20170;-73
2022/01/01 06:12:23;;;;;;;22.60;12.50;;;12.30;99.90;;;;;;5075779;28;20561;-73
2022/01/01 06:14:48;;;;;;;25.90;12.43;;;12.30;99.90;;;;;;5093865;28;20186;-73
2022/01/01 06:17:14;;;;;;;21.77;11.93;;;12.30;99.90;;;;;;5075885;28;20167;-74
2022/01/01 06:19:39;;;;;;;21.93;12.20;;;12.30;99.90;;;;;;5093456;28;20174;-73
2022/01/01 06:22:05;;;;;;;24.90;12.30;;;12.30;99.90;;;;;;5075772;28;20182;-73
2022/01/01 06:24:30;;;;;;;20.10;11.77;;;12.30;99.90;;;;;;5075479;28;20166;-73
2022/01/01 06:26:56;;;;;;;18.90;11.17;;;12.30;99.90;;;;;;5075858;28;20166;-73
2022/01/01 06:29:22;;;;;;;21.60;12.83;;;12.30;99.90;;;;;;5058954;28;20210;-75
2022/01/01 06:31:48;;;;;;;23.00;12.67;;;12.30;99.90;;;;;;5093519;28;20700;-73
2022/01/01 06:34:13;;;;;;;22.23;12.90;;;12.30;99.90;;;;;;5067044;28;20174;-73
2022/01/01 06:36:39;;;;;;;21.20;12.70;;;12.30;99.90;;;;;;5074777;28;20198;-75
2022/01/01 06:39:04;;;;;;;23.73;12.80;;;12.30;99.90;;;;;;5075008;28;20170;-73
2022/01/01 06:41:30;;;;;;;24.70;13.47;;;12.30;99.90;;;;;;5075336;28;20197;-73
2022/01/01 06:43:56;;;;;;;18.67;12.33;;;12.30;99.90;;;;;;5075198;28;20182;-73
2022/01/01 06:46:21;;;;;;;16.37;12.27;;;12.30;99.90;;;;;;5093448;28;20672;-74
2022/01/01 06:48:47;;;;;;;25.90;12.83;;;12.30;99.90;;;;;;5074670;28;20185;-74
2022/01/01 06:51:12;;;;;;;21.20;12.23;;;12.30;99.90;;;;;;5075132;28;20257;-73
2022/01/01 06:53:38;;;;;;;24.07;12.47;;;12.30;99.90;;;;;;5092828;28;20551;-75
2022/01/01 06:56:05;;;;;;;26.90;12.83;;;12.30;99.90;;;;;;5093129;28;20201;-73
2022/01/01 06:58:32;;;;;;;24.13;11.80;;;12.30;99.90;;;;;;5074911;28;20530;-73
2022/01/01 07:00:58;;;;;;;23.63;13.13;;;12.30;99.90;;;;;;5075158;28;20531;-73
2022/01/01 07:03:23;;;;;;;22.23;12.50;;;12.30;99.90;;;;;;5074707;28;20190;-73
2022/01/01 07:05:49;;;;;;;24.93;14.00;;;12.30;99.90;;;;;;5074762;28;20181;-73
2022/01/01 07:08:15;;;;;;;25.07;12.70;;;12.30;99.90;;;;;;5074597;28;20174;-74
2022/01/01 07:10:44;;;;;;;23.00;12.63;;;12.30;99.90;;;;;;5074460;28;20184;-73
2022/01/01 07:13:13;;;;;;;22.97;12.50;;;12.30;99.90;;;;;;5074665;28;20247;-74
2022/01/01 07:15:38;;;;;;;22.53;12.47;;;12.30;99.90;;;;;;5092731;28;20198;-76
2022/01/01 07:18:04;;;;;;;26.83;13.07;;;12.30;99.90;;;;;;5092552;28;20228;-73
2022/01/01 07:20:30;;;;;;;25.47;11.73;;;12.30;99.90;;;;;;5074405;28;20217;-75
2022/01/01 07:22:55;;;;;;;22.47;12.43;;;12.30;99.90;;;;;;5092714;28;20206;-74
2022/01/01 07:25:21;;;;;;;23.30;13.93;;;12.30;99.90;;;;;;5074235;28;20284;-73
2022/01/01 07:27:46;;;;;;;19.87;12.17;;;12.30;99.90;;;;;;5074092;28;20183;-76
2022/01/01 07:30:12;;;;;;;24.40;12.70;;;12.30;99.90;;;;;;5074240;28;20566;-75
2022/01/01 07:32:43;;;;;;;21.33;12.63;;;12.30;99.90;;;;;;5074213;28;20212;-73
2022/01/01 07:35:10;;;;;;;24.33;11.77;;;12.30;99.90;;;;;;5074014;28;20269;-73
2022/01/01 07:37:35;;;;;;;21.20;12.57;;;12.40;99.90;;;;;;5091117;28;20174;-73
2022/01/01 07:40:01;;;;;;;23.07;11.23;;;12.40;99.90;;;;;;5073724;28;20702;-74
2022/01/01 07:42:26;;;;;;;23.50;12.83;;;12.40;99.90;;;;;;5092205;28;20221;-74
2022/01/01 07:44:52;;;;;;;25.40;13.30;;;12.40;99.90;;;;;;5073894;28;20202;-73
2022/01/01 07:47:17;;;;;;;24.33;13.23;;;12.40;99.90;;;;;;5073890;28;20178;-73
2022/01/01 07:49:43;;;;;;;26.10;12.27;;;12.40;99.90;;;;;;5073759;28;20190;-73
2022/01/01 07:52:09;;;;;;;24.60;12.80;;;12.30;99.90;;;;;;5073947;28;20190;-74
2022/01/01 07:54:34;;;;;;;25.43;13.27;;;12.30;99.90;;;;;;5073559;28;20170;-73
2022/01/01 07:57:00;;;;;;;26.07;13.27;;;12.30;99.90;;;;;;5074086;28;20720;-74
2022/01/01 07:59:25;;;;;;;24.77;11.73;;;12.30;99.90;;;;;;5073457;28;20174;-73
2022/01/01 08:01:51;;;;;;;29.50;12.27;;;12.30;99.90;;;;;;5073802;28;20561;-73
2022/01/01 08:04:16;;;;;;;23.93;13.43;;;12.30;99.90;;;;;;5074250;28;20170;-74
2022/01/01 08:06:42;;;;;;;26.33;12.20;;;12.30;99.90;;;;;;5074144;28;20170;-73
2022/01/01 08:09:07;;;;;;;23.80;12.23;;;12.30;99.90;;;;;;5073158;28;20178;-73
2022/01/01 08:11:33;;;;;;;25.20;12.73;;;12.30;99.90;;;;;;5073445;28;20281;-73
2022/01/01 08:13:59;;;;;;;26.90;13.27;;;12.40;99.90;;;;;;5073819;28;20186;-73
2022/01/01 08:16:24;;;;;;;22.23;13.03;;;12.30;99.90;;;;;;5073539;28;20252;-73
2022/01/01 08:18:50;;;;;;;23.53;13.27;;;12.30;99.90;;;;;;5091378;28;20269;-73
2022/01/01 08:21:15;;;;;;;22.50;12.43;;;12.30;99.90;;;;;;5073556;28;20209;-75
2022/01/01 08:23:41;;;;;;;20.17;12.10;;;12.40;99.90;;;;;;5073618;28;20196;-73
2022/01/01 08:26:06;;;;;;;26.50;14.33;;;12.40;99.90;;;;;;5073622;28;20260;-73
2022/01/01 08:28:32;;;;;;;24.30;13.93;;;12.40;99.90;;;;;;5073270;28;20171;-74
2022/01/01 08:30:58;;;;;;;26.67;12.57;;;12.40;99.90;;;;;;5091191;28;20249;-73
2022/01/01 08:33:23;;;;;;;28.03;14.33;;;12.40;99.90;;;;;;5073404;28;20221;-72
2022/01/01 08:35:49;;;;;;;24.10;12.87;;;12.40;99.90;;;;;;5073248;28;20232;-73
2022/01/01 08:38:15;;;;;;;21.70;13.50;;;12.50;99.90;;;;;;5073420;28;20251;-74
2022/01/01 08:40:40;;;;;;;26.37;12.97;;;12.50;99.90;;;;;;5073790;28;20190;-75
2022/01/01 08:43:06;;;;;;;24.00;12.90;;;12.50;99.90;;;;;;5073654;28;20190;-73
2022/01/01 08:45:33;;;;;;;24.97;12.30;;;12.50;99.90;;;;;;5073159;28;20261;-73
2022/01/01 08:47:59;;;;;;;25.63;13.13;;;12.50;99.90;;;;;;5072939;28;20182;-75
2022/01/01 08:50:24;;;;;;;26.40;13.30;;;12.50;99.90;;;;;;5073210;28;20327;-73
2022/01/01 08:52:50;;;;;;;23.87;12.70;;;12.60;99.90;;;;;;5073385;28;20236;-72
2022/01/01 08:55:15;;;;;;;26.60;13.07;;;12.60;99.90;;;;;;5073305;28;20198;-75
2022/01/01 08:57:41;;;;;;;29.40;12.63;;;12.60;99.90;;;;;;5073457;28;20209;-73
2022/01/01 09:00:10;;;;;;;28.83;12.30;;;12.50;99.90;;;;;;5094795;28;20188;-73
2022/01/01 09:02:35;;;;;;;25.30;13.07;;;12.60;99.90;;;;;;5095425;28;20598;-73
2022/01/01 09:05:01;;;;;;;24.80;12.87;;;12.60;99.90;;;;;;5095268;28;20220;-73
2022/01/01 09:07:30;;;;;;;20.83;13.23;;;12.60;99.90;;;;;;5077370;28;20257;-73
2022/01/01 09:10:00;;;;;;;23.63;12.57;;;12.60;99.90;;;;;;5076591;28;20167;-73
2022/01/01 09:12:27;;;;;;;20.17;12.53;;;12.60;99.90;;;;;;5077029;28;20198;-73
2022/01/01 09:14:53;;;;;;;23.33;11.50;;;12.60;99.90;;;;;;5076642;28;20177;-73
2022/01/01 09:17:19;;;;;;;19.63;11.80;;;12.70;99.90;;;;;;5077083;28;20181;-73
2022/01/01 09:19:44;;;;;;;23.33;11.93;;;12.70;99.90;;;;;;5076619;28;20531;-73
2022/01/01 09:22:10;;;;;;;25.67;13.07;;;12.70;99.90;;;;;;5076890;28;20539;-73
2022/01/01 09:24:35;;;;;;;33.60;13.30;;;12.70;99.90;;;;;;5076616;28;20197;-74
2022/01/01 09:27:02;;;;;;;23.07;12.53;;;12.70;99.90;;;;;;5076968;28;20174;-73
2022/01/01 09:29:28;;;;;;;23.70;12.50;;;12.70;99.90;;;;;;5094250;28;20681;-73
2022/01/01 09:31:53;;;;;;;28.47;12.87;;;12.70;99.90;;;;;;5094554;28;20214;-75
2022/01/01 09:34:19;;;;;;;25.97;12.80;;;12.70;99.90;;;;;;5076485;28;20182;-74
2022/01/01 09:36:46;;;;;;;28.97;14.07;;;12.80;99.90;;;;;;5076617;28;20321;-73
2022/01/01 09:39:11;;;;;;;28.27;13.13;;;12.80;99.90;;;;;;5076492;28;20170;-73
2022/01/01 09:41:41;;;;;;;21.77;12.07;;;12.80;99.90;;;;;;5094648;28;20182;-73
2022/01/01 09:44:15;;;;;;;24.53;12.60;;;12.70;99.90;;;;;;5094510;28;20262;-74
2022/01/01 09:46:42;;;;;;;24.40;13.67;;;12.70;99.90;;;;;;5094839;28;20553;-72
2022/01/01 09:49:08;;;;;;;27.80;13.00;;;12.70;99.90;;;;;;5075976;28;20281;-73
2022/01/01 09:51:35;;;;;;;26.57;13.40;;;12.70;99.90;;;;;;5076336;28;20218;-73
2022/01/01 09:54:01;;;;;;;27.23;13.93;;;12.70;99.90;;;;;;5076317;28;20197;-73
2022/01/01 09:56:26;;;;;;;22.83;12.83;;;12.80;99.90;;;;;;5075960;28;20658;-73
2022/01/01 09:58:52;;;;;;;25.23;12.53;;;12.70;99.90;;;;;;5075708;28;20498;-73
2022/01/01 10:01:17;;;;;;;25.57;12.80;;;12.70;99.90;;;;;;5094177;28;20163;-73
2022/01/01 10:03:45;;;;;;;26.93;14.67;;;12.80;99.90;;;;;;5076235;28;20177;-73
2022/01/01 10:06:14;;;;;;;29.67;14.87;;;12.80;99.90;;;;;;5094948;28;20170;-74
2022/01/01 10:09:00;;;;;;;32.83;14.47;;;12.80;99.90;;;;;;5100220;28;20256;-73
2022/01/01 10:11:27;;;;;;;24.70;14.07;;;12.80;99.90;;;;;;5079753;28;20661;-73
2022/01/01 10:13:53;;;;;;;30.60;15.13;;;12.80;99.90;;;;;;5075827;28;20178;-73
2022/01/01 10:16:20;;;;;;;25.37;13.27;;;12.80;99.90;;;;;;5075798;28;20565;-73
2022/01/01 10:18:47;;;;;;;32.90;15.00;;;12.80;99.90;;;;;;5075474;28;20210;-73
2022/01/01 10:21:16;;;;;;;29.87;16.13;;;12.80;99.90;;;;;;5093639;28;20691;-74
2022/01/01 10:23:44;;;;;;;31.07;15.60;;;12.80;99.90;;;;;;5093808;28;20568;-73
2022/01/01 10:29:03;;;;;;;33.33;16.37;;;12.80;99.90;;;;;;5094065;28;20185;-73
2022/01/01 10:31:31;;;;;;;28.13;15.40;;;12.80;99.90;;;;;;5093718;28;20655;-73
2022/01/01 10:33:58;;;;;;;27.80;15.03;;;12.80;99.90;;;;;;5094515;28;20641;-73
2022/01/01 10:36:24;;;;;;;30.17;14.83;;;12.80;99.90;;;;;;5075367;28;20287;-73
2022/01/01 10:38:50;;;;;;;32.03;14.73;;;12.70;99.90;;;;;;5074682;28;20644;-72
2022/01/01 10:41:16;;;;;;;25.33;14.67;;;12.80;99.90;;;;;;5093504;28;20427;-73
2022/01/01 10:43:44;;;;;;;29.60;15.50;;;12.80;99.90;;;;;;5075394;28;20253;-73
2022/01/01 10:46:14;;;;;;;31.03;15.87;;;12.80;99.90;;;;;;5075260;28;20184;-74
2022/01/01 10:48:58;;;;;;;33.03;16.10;;;12.90;99.90;;;;;;5074985;28;20214;-74
2022/01/01 10:51:34;;;;;;;33.17;16.33;;;12.80;99.90;;;;;;5075130;28;20178;-73
2022/01/01 10:54:02;;;;;;;32.83;17.67;;;12.90;99.90;;;;;;5075073;28;20206;-72
2022/01/01 10:56:36;;;;;;;29.60;16.17;;;12.90;99.90;;;;;;5093156;28;20256;-72
2022/01/01 10:59:03;;;;;;;33.40;14.23;;;13.00;99.90;;;;;;5074583;28;20170;-73
2022/01/01 11:01:29;;;;;;;31.00;15.13;;;13.00;99.90;;;;;;5074948;28;20244;-73
2022/01/01 11:03:55;;;;;;;33.60;15.67;;;13.00;99.90;;;;;;5092929;28;20194;-72
2022/01/01 11:06:21;;;;;;;25.77;14.47;;;13.10;99.90;;;;;;5075050;28;20491;-73
2022/01/01 11:08:47;;;;;;;27.33;13.97;;;13.10;99.90;;;;;;5092624;28;20174;-73
2022/01/01 11:11:15;;;;;;;26.60;14.40;;;13.10;99.90;;;;;;5074330;28;20184;-73
2022/01/01 11:13:41;;;;;;;31.30;14.50;;;13.10;99.90;;;;;;5074811;28;20269;-74
2022/01/01 11:16:08;;;;;;;32.60;15.17;;;13.10;99.90;;;;;;5092672;28;20281;-73
2022/01/01 11:18:35;;;;;;;30.63;15.50;;;13.10;99.90;;;;;;5074308;28;20166;-73
2022/01/01 11:21:02;;;;;;;27.57;14.20;;;13.10;99.90;;;;;;5092253;28;20657;-73
2022/01/01 11:23:28;;;;;;;31.17;15.33;;;13.10;99.90;;;;;;5092619;28;20269;-73
2022/01/01 11:25:54;;;;;;;32.20;15.83;;;13.10;99.90;;;;;;5074239;28;20607;-74
2022/01/01 11:28:21;;;;;;;28.27;14.30;;;13.10;99.90;;;;;;5092421;28;20166;-75
2022/01/01 11:30:57;;;;;;;31.83;15.70;;;13.10;99.90;;;;;;5074331;28;20170;-75
2022/01/01 11:33:43;;;;;;;33.73;14.80;;;13.10;99.90;;;;;;5092612;28;20271;-73
2022/01/01 11:36:22;;;;;;;31.63;15.87;;;13.10;99.90;;;;;;5092360;28;20743;-73
2022/01/01 11:38:47;;;;;;;31.17;15.90;;;13.10;99.90;;;;;;5073952;28;20247;-73
2022/01/01 11:41:17;;;;;;;29.40;15.02;;;13.20;99.90;;;;;;5092033;28;20155;-74
2022/01/01 11:43:54;;;;;;;29.93;15.10;;;13.20;99.90;;;;;;5092277;28;20535;-73
2022/01/01 11:46:23;;;;;;;29.80;15.33;;;13.30;99.90;;;;;;5073999;28;20181;-73
2022/01/01 11:48:51;;;;;;;27.33;13.87;;;13.20;99.90;;;;;;5073427;28;20539;-75
2022/01/01 11:51:22;;;;;;;23.57;14.30;;;13.30;99.90;;;;;;5092067;28;20649;-73
2022/01/01 11:54:26;;;;;;;32.83;14.77;;;13.30;99.90;;;;;;5073565;28;20162;-73
2022/01/01 11:56:56;;;;;;;27.23;14.80;;;13.30;99.90;;;;;;5073997;28;20657;-72
2022/01/01 11:59:44;;;;;;;24.77;14.43;;;13.30;99.90;;;;;;5073663;28;20195;-73
2022/01/01 12:02:18;;;;;;;26.33;13.47;;;13.30;99.90;;;;;;5092369;28;20193;-73
2022/01/01 12:04:55;;;;;;;27.57;14.00;;;13.30;99.90;;;;;;5091935;28;20224;-72
2022/01/01 12:07:21;;;;;;;25.03;14.30;;;13.30;99.90;;;;;;5074550;28;20166;-73
2022/01/01 12:09:49;;;;;;;30.53;14.47;;;13.40;99.90;;;;;;5073180;28;20239;-74
2022/01/01 12:12:17;;;;;;;29.57;13.80;;;13.30;99.90;;;;;;5073731;28;20182;-74
2022/01/01 12:14:44;;;;;;;29.03;15.20;;;13.30;99.90;;;;;;5091708;28;20159;-74
2022/01/01 12:17:15;;;;;;;33.37;14.90;;;13.30;99.90;;;;;;5091663;28;20260;-73
2022/01/01 12:19:43;;;;;;;26.00;14.53;;;13.20;99.90;;;;;;5073043;28;20170;-74
2022/01/01 12:22:08;;;;;;;29.43;14.57;;;13.20;99.90;;;;;;5091693;28;20588;-75
2022/01/01 12:24:38;;;;;;;28.67;14.83;;;13.30;99.90;;;;;;5073320;28;20262;-73
2022/01/01 12:27:12;;;;;;;25.20;14.93;;;13.30;99.90;;;;;;5091615;28;20538;-73
2022/01/01 12:29:39;;;;;;;26.80;14.70;;;13.30;99.90;;;;;;5072934;28;20170;-74
2022/01/01 12:32:07;;;;;;;31.52;14.18;;;13.20;99.90;;;;;;5090479;28;20224;-73
2022/01/01 12:34:34;;;;;;;28.73;15.57;;;13.20;99.90;;;;;;5072661;28;20175;-74